createdAt,value
2018-07-22T00:00:24.067Z,54.07
2018-07-22T00:02:53.086Z,53.31
2018-07-22T00:05:21.623Z,54.38
2018-07-22T00:07:51.384Z,54.25
2018-07-22T00:10:27.400Z,53.54
2018-07-22T00:12:56.312Z,53.91
2018-07-22T00:15:25.555Z,54.24
2018-07-22T00:17:54.785Z,53.84
2018-07-22T00:20:23.332Z,54.19
2018-07-22T00:22:51.875Z,53.76
2018-07-22T00:25:20.427Z,53.73
2018-07-22T00:27:50.121Z,54.26
2018-07-22T00:30:18.616Z,53.38
2018-07-22T00:32:47.312Z,54.04
2018-07-22T00:35:16.099Z,54.75
2018-07-22T00:37:44.689Z,54.33
2018-07-22T00:40:13.195Z,54.68
2018-07-22T00:42:42.288Z,54.98
2018-07-22T00:45:13.808Z,54.68
2018-07-22T00:47:44.090Z,54.87
2018-07-22T00:50:13.196Z,55.92
2018-07-22T00:52:41.808Z,56.05
2018-07-22T00:55:10.827Z,55.35
2018-07-22T00:57:39.324Z,55.49
2018-07-22T01:00:08.871Z,56.11
2018-07-22T01:02:37.687Z,56.19
2018-07-22T01:05:06.647Z,55.84
2018-07-22T01:07:37.240Z,56.25
2018-07-22T01:10:07.207Z,55.69
2018-07-22T01:12:35.809Z,55.56
2018-07-22T01:15:05.213Z,55.30
2018-07-22T01:17:34.558Z,54.91
2018-07-22T01:20:05.140Z,54.85
2018-07-22T01:22:33.955Z,53.91
2018-07-22T01:25:08.969Z,53.79
2018-07-22T01:27:37.556Z,53.87
2018-07-22T01:30:07.807Z,52.90
2018-07-22T01:32:36.357Z,53.39
2018-07-22T01:35:04.971Z,53.38
2018-07-22T01:37:33.587Z,53.16
2018-07-22T01:40:02.275Z,53.54
2018-07-22T01:42:30.887Z,53.45
2018-07-22T01:44:59.449Z,53.54
2018-07-22T01:47:28.601Z,53.38
2018-07-22T01:49:57.096Z,53.41
2018-07-22T01:52:26.108Z,53.80
2018-07-22T01:54:55.266Z,53.31
2018-07-22T01:57:23.865Z,54.09
2018-07-22T01:59:52.448Z,53.71
2018-07-22T02:02:21.087Z,53.61
2018-07-22T02:04:50.686Z,53.53
2018-07-22T02:07:19.305Z,53.02
2018-07-22T02:09:48.631Z,53.11
2018-07-22T02:12:18.466Z,53.20
2018-07-22T02:14:46.969Z,53.50
2018-07-22T02:17:15.556Z,53.33
2018-07-22T02:19:44.147Z,53.53
2018-07-22T02:22:13.035Z,53.44
2018-07-22T02:24:42.492Z,52.61
2018-07-22T02:27:11.107Z,52.75
2018-07-22T02:29:39.569Z,53.62
2018-07-22T02:32:08.352Z,53.02
2018-07-22T02:34:37.074Z,53.69
2018-07-22T02:37:05.572Z,53.76
2018-07-22T02:39:34.184Z,53.58
2018-07-22T02:42:02.724Z,53.41
2018-07-22T02:44:31.328Z,54.06
2018-07-22T02:46:59.825Z,54.01
2018-07-22T02:49:28.391Z,53.46
2018-07-22T02:51:57.797Z,53.32
2018-07-22T02:54:26.684Z,54.08
2018-07-22T02:56:55.828Z,52.93
2018-07-22T02:59:24.327Z,54.03
2018-07-22T03:01:52.766Z,53.76
2018-07-22T03:04:21.647Z,53.79
2018-07-22T03:06:50.164Z,53.87
2018-07-22T03:09:18.779Z,53.66
2018-07-22T03:11:47.306Z,53.65
2018-07-22T03:14:16.453Z,53.32
2018-07-22T03:16:44.961Z,54.06
2018-07-22T03:19:13.633Z,53.86
2018-07-22T03:21:42.164Z,53.50
2018-07-22T03:24:10.736Z,53.62
2018-07-22T03:26:39.234Z,54.86
2018-07-22T03:29:08.576Z,55.63
2018-07-22T03:31:37.893Z,56.33
2018-07-22T03:34:06.810Z,57.04
2018-07-22T03:36:35.705Z,59.31
2018-07-22T03:39:06.030Z,59.42
2018-07-22T03:41:34.585Z,60.47
2018-07-22T03:44:03.089Z,61.85
2018-07-22T03:46:31.599Z,62.54
2018-07-22T03:49:00.115Z,63.48
2018-07-22T03:51:28.654Z,64.52
2018-07-22T03:53:57.228Z,63.06
2018-07-22T03:56:25.730Z,63.72
2018-07-22T03:58:54.185Z,63.82
2018-07-22T04:01:22.774Z,63.43
2018-07-22T04:03:51.333Z,64.76
2018-07-22T04:06:19.792Z,63.65
2018-07-22T04:08:48.291Z,63.58
2018-07-22T04:11:16.788Z,63.40
2018-07-22T04:13:45.328Z,62.89
2018-07-22T04:16:13.799Z,64.46
2018-07-22T04:18:51.526Z,63.68
2018-07-22T04:21:20.584Z,64.78
2018-07-22T04:23:50.067Z,62.48
2018-07-22T04:26:18.997Z,62.40
2018-07-22T04:28:47.549Z,60.48
2018-07-22T04:31:16.180Z,59.71
2018-07-22T04:33:44.756Z,59.41
2018-07-22T04:36:13.713Z,58.67
2018-07-22T04:38:43.086Z,60.70
2018-07-22T04:41:13.044Z,60.72
2018-07-22T04:43:42.922Z,61.28
2018-07-22T04:46:11.956Z,59.79
2018-07-22T04:48:40.532Z,58.78
2018-07-22T04:51:09.033Z,58.99
2018-07-22T04:53:37.683Z,58.64
2018-07-22T04:56:06.209Z,58.95
2018-07-22T04:58:34.845Z,58.95
2018-07-22T05:01:03.370Z,59.15
2018-07-22T05:03:31.851Z,59.64
2018-07-22T05:06:00.376Z,59.10
2018-07-22T05:08:28.978Z,58.02
2018-07-22T05:10:57.567Z,57.95
2018-07-22T05:13:26.153Z,58.58
2018-07-22T05:15:54.781Z,57.06
2018-07-22T05:18:23.844Z,57.67
2018-07-22T05:20:52.352Z,56.96
2018-07-22T05:23:21.511Z,57.48
2018-07-22T05:25:49.970Z,58.08
2018-07-22T05:28:19.388Z,57.47
2018-07-22T05:30:47.845Z,57.59
2018-07-22T05:33:17.342Z,58.25
2018-07-22T05:35:46.030Z,57.63
2018-07-22T05:38:15.308Z,57.30
2018-07-22T05:40:44.106Z,57.24
2018-07-22T05:43:12.667Z,56.66
2018-07-22T05:45:41.260Z,56.70
2018-07-22T05:48:09.867Z,57.03
2018-07-22T05:50:38.982Z,56.89
2018-07-22T05:53:08.377Z,56.26
2018-07-22T05:55:37.146Z,56.21
2018-07-22T05:58:06.605Z,56.01
2018-07-22T06:00:35.090Z,55.96
2018-07-22T06:03:05.478Z,55.06
2018-07-22T06:05:36.586Z,55.88
2018-07-22T06:08:05.467Z,55.29
2018-07-22T06:10:33.917Z,55.92
2018-07-22T06:13:02.460Z,54.38
2018-07-22T06:15:30.963Z,54.42
2018-07-22T06:18:00.635Z,54.44
2018-07-22T06:20:29.136Z,54.87
2018-07-22T06:22:57.628Z,54.73
2018-07-22T06:25:26.570Z,54.18
2018-07-22T06:27:55.038Z,53.51
2018-07-22T06:30:23.868Z,53.08
2018-07-22T06:32:52.639Z,52.86
2018-07-22T06:35:21.516Z,52.85
2018-07-22T06:37:50.445Z,53.05
2018-07-22T06:40:19.645Z,52.51
2018-07-22T06:42:49.318Z,51.45
2018-07-22T06:45:18.757Z,51.95
2018-07-22T06:47:47.974Z,51.18
2018-07-22T06:50:16.578Z,51.95
2018-07-22T06:52:47.343Z,51.36
2018-07-22T06:55:17.840Z,51.56
2018-07-22T06:57:46.366Z,51.37
2018-07-22T07:00:15.953Z,50.79
2018-07-22T07:02:44.856Z,50.76
2018-07-22T07:05:13.893Z,50.56
2018-07-22T07:07:43.640Z,49.95
2018-07-22T07:10:12.278Z,49.65
2018-07-22T07:12:40.815Z,50.28
2018-07-22T07:15:09.468Z,49.77
2018-07-22T07:17:38.123Z,50.05
2018-07-22T07:20:06.661Z,49.50
2018-07-22T07:22:35.877Z,49.65
2018-07-22T07:25:04.931Z,49.88
2018-07-22T07:27:35.085Z,49.79
2018-07-22T07:30:04.589Z,49.23
2018-07-22T07:32:35.601Z,49.72
2018-07-22T07:35:05.075Z,49.41
2018-07-22T07:37:33.833Z,49.84
2018-07-22T07:40:02.364Z,49.14
2018-07-22T07:42:31.889Z,49.59
2018-07-22T07:45:01.606Z,49.40
2018-07-22T07:47:32.230Z,49.61
2018-07-22T07:50:00.843Z,50.68
2018-07-22T07:52:29.532Z,50.01
2018-07-22T07:55:00.236Z,50.50
2018-07-22T07:57:28.827Z,49.81
2018-07-22T07:59:58.704Z,50.11
2018-07-22T08:02:27.370Z,50.15
2018-07-22T08:04:56.272Z,50.20
2018-07-22T08:07:24.988Z,49.82
2018-07-22T08:09:53.622Z,49.27
2018-07-22T08:12:22.303Z,48.91
2018-07-22T08:14:50.993Z,48.84
2018-07-22T08:17:19.678Z,49.25
2018-07-22T08:19:48.537Z,48.80
2018-07-22T08:22:17.683Z,48.15
2018-07-22T08:24:47.769Z,47.91
2018-07-22T08:27:16.361Z,48.53
2018-07-22T08:29:45.046Z,47.32
2018-07-22T08:32:13.470Z,48.37
2018-07-22T08:34:42.110Z,46.80
2018-07-22T08:37:10.692Z,46.99
2018-07-22T08:39:39.321Z,47.04
2018-07-22T08:42:08.011Z,48.02
2018-07-22T08:44:37.594Z,47.60
2018-07-22T08:47:06.467Z,47.48
2018-07-22T08:49:35.048Z,47.36
2018-07-22T08:52:04.133Z,46.98
2018-07-22T08:54:32.748Z,46.52
2018-07-22T08:57:01.358Z,47.13
2018-07-22T08:59:30.089Z,47.96
2018-07-22T09:01:58.609Z,47.55
2018-07-22T09:04:28.321Z,47.24
2018-07-22T09:06:56.927Z,47.24
2018-07-22T09:09:25.553Z,46.58
2018-07-22T09:11:54.341Z,47.32
2018-07-22T09:14:22.909Z,46.77
2018-07-22T09:16:51.344Z,47.69
2018-07-22T09:19:19.791Z,47.69
2018-07-22T09:21:48.624Z,47.47
2018-07-22T09:24:17.689Z,47.17
2018-07-22T09:26:46.228Z,47.45
2018-07-22T09:29:14.940Z,47.90
2018-07-22T09:31:43.437Z,48.09
2018-07-22T09:34:12.204Z,47.65
2018-07-22T09:36:40.888Z,48.28
2018-07-22T09:39:11.854Z,48.38
2018-07-22T09:41:41.143Z,48.14
2018-07-22T09:44:09.616Z,48.17
2018-07-22T09:46:38.187Z,48.56
2018-07-22T09:49:06.624Z,49.22
2018-07-22T09:51:35.116Z,48.97
2018-07-22T09:54:04.444Z,49.19
2018-07-22T09:56:34.994Z,48.49
2018-07-22T09:59:04.346Z,49.78
2018-07-22T10:01:32.933Z,49.62
2018-07-22T10:04:01.489Z,49.23
2018-07-22T10:06:30.007Z,49.50
2018-07-22T10:08:58.742Z,47.89
2018-07-22T10:11:28.056Z,47.87
2018-07-22T10:13:58.647Z,48.32
2018-07-22T10:16:27.441Z,47.67
2018-07-22T10:18:56.809Z,48.10
2018-07-22T10:21:27.104Z,47.15
2018-07-22T10:23:55.822Z,47.22
2018-07-22T10:26:24.412Z,47.20
2018-07-22T10:28:53.809Z,46.31
2018-07-22T10:31:22.806Z,46.80
2018-07-22T10:33:52.077Z,46.68
2018-07-22T10:36:21.039Z,47.14
2018-07-22T10:38:52.285Z,46.89
2018-07-22T10:41:21.245Z,47.25
2018-07-22T10:43:49.895Z,45.43
2018-07-22T10:46:18.424Z,45.57
2018-07-22T10:48:47.391Z,45.13
2018-07-22T10:51:16.059Z,46.17
2018-07-22T10:53:47.241Z,46.46
2018-07-22T10:56:17.050Z,45.72
2018-07-22T10:58:46.957Z,46.34
2018-07-22T11:01:16.429Z,45.09
2018-07-22T11:03:45.049Z,45.18
2018-07-22T11:06:14.106Z,44.48
2018-07-22T11:08:42.610Z,45.51
2018-07-22T11:11:11.209Z,45.58
2018-07-22T11:13:39.745Z,44.30
2018-07-22T11:16:08.944Z,43.48
2018-07-22T11:18:37.476Z,44.53
2018-07-22T11:21:06.081Z,45.41
2018-07-22T11:23:35.446Z,45.70
2018-07-22T11:26:04.210Z,44.60
2018-07-22T11:28:33.301Z,45.22
2018-07-22T11:31:02.851Z,42.36
2018-07-22T11:33:32.201Z,40.35
2018-07-22T11:36:00.917Z,40.06
2018-07-22T11:38:29.605Z,38.12
2018-07-22T11:40:58.180Z,38.84
2018-07-22T11:43:26.758Z,38.96
2018-07-22T11:45:55.538Z,39.05
2018-07-22T11:48:25.090Z,39.31
2018-07-22T11:50:53.600Z,39.60
2018-07-22T11:53:22.169Z,39.28
2018-07-22T11:55:50.644Z,39.40
2018-07-22T11:58:20.008Z,39.83
2018-07-22T12:00:49.769Z,39.51
2018-07-22T12:03:20.327Z,39.10
2018-07-22T12:05:49.313Z,39.33
2018-07-22T12:08:18.603Z,40.39
2018-07-22T12:10:47.200Z,39.62
2018-07-22T12:13:15.760Z,39.16
2018-07-22T12:15:44.564Z,39.32
2018-07-22T12:18:13.153Z,39.36
2018-07-22T12:20:42.014Z,38.69
2018-07-22T12:23:11.461Z,38.72
2018-07-22T12:25:39.981Z,37.88
2018-07-22T12:28:08.621Z,38.79
2018-07-22T12:30:37.163Z,37.89
2018-07-22T12:33:05.721Z,38.32
2018-07-22T12:35:34.366Z,38.62
2018-07-22T12:38:03.048Z,37.96
2018-07-22T12:40:31.624Z,38.63
2018-07-22T12:43:00.220Z,39.11
2018-07-22T12:45:29.364Z,38.31
2018-07-22T12:47:58.852Z,38.26
2018-07-22T12:50:28.349Z,37.00
2018-07-22T12:52:57.910Z,36.73
2018-07-22T12:55:26.760Z,37.25
2018-07-22T12:57:55.381Z,36.80
2018-07-22T13:00:23.959Z,36.78
2018-07-22T13:02:52.448Z,37.19
2018-07-22T13:05:21.880Z,36.41
2018-07-22T13:07:52.014Z,36.97
2018-07-22T13:10:21.691Z,36.34
2018-07-22T13:12:50.434Z,35.43
2018-07-22T13:15:19.063Z,35.48
2018-07-22T13:17:47.680Z,36.08
2018-07-22T13:20:16.797Z,36.66
2018-07-22T13:22:45.301Z,35.88
2018-07-22T13:25:16.412Z,36.21
2018-07-22T13:27:46.017Z,35.30
2018-07-22T13:30:14.646Z,35.49
2018-07-22T13:32:43.193Z,34.98
2018-07-22T13:35:12.088Z,34.89
2018-07-22T13:37:41.329Z,34.73
2018-07-22T13:40:10.926Z,34.85
2018-07-22T13:42:40.622Z,34.94
2018-07-22T13:45:09.148Z,35.68
2018-07-22T13:47:37.645Z,35.93
2018-07-22T13:50:06.641Z,35.25
2018-07-22T13:52:36.313Z,34.51
2018-07-22T13:55:04.852Z,35.08
2018-07-22T13:57:33.588Z,35.54
2018-07-22T14:00:02.176Z,34.42
2018-07-22T14:02:30.811Z,35.45
2018-07-22T14:04:59.421Z,35.16
2018-07-22T14:07:28.114Z,35.37
2018-07-22T14:09:57.436Z,34.84
2018-07-22T14:12:25.952Z,33.37
2018-07-22T14:14:54.979Z,34.43
2018-07-22T14:17:23.490Z,34.01
2018-07-22T14:19:52.820Z,34.48
2018-07-22T14:22:21.784Z,34.41
2018-07-22T14:24:50.429Z,34.17
2018-07-22T14:27:19.110Z,34.01
2018-07-22T14:29:47.716Z,33.94
2018-07-22T14:32:16.651Z,33.62
2018-07-22T14:34:45.307Z,32.81
2018-07-22T14:37:14.011Z,32.60
2018-07-22T14:39:42.703Z,32.27
2018-07-22T14:42:11.442Z,32.37
2018-07-22T14:44:40.089Z,33.06
2018-07-22T14:47:09.537Z,32.39
2018-07-22T14:49:38.201Z,32.97
2018-07-22T14:52:06.806Z,32.18
2018-07-22T14:54:35.751Z,32.37
2018-07-22T14:57:04.490Z,33.49
2018-07-22T14:59:33.844Z,33.41
2018-07-22T15:02:02.457Z,33.45
2018-07-22T15:04:32.912Z,32.63
2018-07-22T15:07:01.478Z,33.34
2018-07-22T15:09:30.111Z,32.60
2018-07-22T15:11:59.487Z,32.19
2018-07-22T15:14:28.903Z,32.53
2018-07-22T15:16:57.672Z,33.07
2018-07-22T15:19:26.371Z,33.17
2018-07-22T15:21:55.059Z,32.47
2018-07-22T15:24:24.511Z,33.08
2018-07-22T15:26:53.126Z,33.30
2018-07-22T15:29:21.824Z,33.88
2018-07-22T15:31:50.579Z,33.52
2018-07-22T15:34:19.204Z,33.80
2018-07-22T15:36:47.876Z,34.47
2018-07-22T15:39:16.619Z,33.51
2018-07-22T15:41:45.208Z,33.22
2018-07-22T15:44:13.977Z,33.18
2018-07-22T15:46:42.592Z,32.37
2018-07-22T15:49:11.202Z,32.38
2018-07-22T15:51:39.863Z,33.27
2018-07-22T15:54:08.444Z,34.55
2018-07-22T15:56:36.903Z,35.58
2018-07-22T15:59:05.734Z,35.89
2018-07-22T16:01:34.330Z,35.41
2018-07-22T16:04:02.887Z,36.55
2018-07-22T16:06:31.593Z,36.27
2018-07-22T16:09:00.862Z,35.64
2018-07-22T16:11:29.541Z,35.76
2018-07-22T16:13:58.102Z,35.60
2018-07-22T16:16:27.816Z,35.17
2018-07-22T16:18:58.590Z,34.79
2018-07-22T16:21:28.157Z,34.77
2018-07-22T16:23:56.838Z,34.52
2018-07-22T16:26:25.489Z,35.51
2018-07-22T16:28:54.320Z,35.06
2018-07-22T16:31:22.874Z,36.39
2018-07-22T16:33:51.522Z,36.12
2018-07-22T16:36:21.013Z,35.68
2018-07-22T16:38:49.676Z,36.45
2018-07-22T16:41:19.078Z,36.84
2018-07-22T16:43:48.087Z,36.87
2018-07-22T16:46:16.720Z,35.41
2018-07-22T16:48:45.441Z,35.69
2018-07-22T16:51:15.547Z,34.96
2018-07-22T16:53:45.111Z,34.88
2018-07-22T16:56:13.683Z,34.95
2018-07-22T16:58:53.065Z,35.59
2018-07-22T17:01:21.739Z,36.20
2018-07-22T17:03:50.266Z,35.60
2018-07-22T17:06:19.673Z,35.11
2018-07-22T17:08:48.325Z,36.03
2018-07-22T17:11:17.678Z,36.53
2018-07-22T17:13:46.462Z,36.12
2018-07-22T17:16:15.212Z,36.71
2018-07-22T17:18:43.806Z,36.16
2018-07-22T17:21:13.030Z,36.58
2018-07-22T17:23:41.782Z,36.61
2018-07-22T17:26:10.420Z,36.03
2018-07-22T17:28:39.005Z,35.81
2018-07-22T17:31:07.916Z,36.50
2018-07-22T17:33:40.271Z,36.09
2018-07-22T17:36:08.926Z,36.47
2018-07-22T17:38:37.578Z,36.29
2018-07-22T17:41:07.374Z,36.26
2018-07-22T17:43:36.249Z,37.25
2018-07-22T17:46:05.617Z,36.86
2018-07-22T17:48:34.176Z,37.57
2018-07-22T17:51:02.988Z,37.40
2018-07-22T17:53:31.575Z,36.81
2018-07-22T17:56:01.431Z,37.80
2018-07-22T17:58:30.146Z,37.70
2018-07-22T18:00:58.819Z,36.95
2018-07-22T18:03:32.051Z,37.18
2018-07-22T18:06:01.824Z,37.97
2018-07-22T18:08:30.613Z,37.53
2018-07-22T18:10:59.080Z,38.69
2018-07-22T18:13:28.553Z,37.66
2018-07-22T18:15:57.672Z,37.96
2018-07-22T18:18:26.333Z,38.62
2018-07-22T18:20:55.050Z,37.90
2018-07-22T18:23:23.622Z,38.33
2018-07-22T18:25:52.344Z,38.91
2018-07-22T18:28:20.985Z,38.37
2018-07-22T18:30:50.205Z,39.19
2018-07-22T18:33:18.797Z,38.66
2018-07-22T18:35:47.347Z,38.67
2018-07-22T18:38:16.876Z,39.72
2018-07-22T18:40:45.447Z,40.10
2018-07-22T18:43:15.032Z,39.28
2018-07-22T18:45:43.645Z,39.21
2018-07-22T18:48:12.257Z,39.25
2018-07-22T18:50:41.448Z,39.15
2018-07-22T18:53:09.982Z,39.17
2018-07-22T18:55:38.757Z,39.30
2018-07-22T18:58:08.193Z,40.37
2018-07-22T19:00:37.381Z,40.45
2018-07-22T19:03:06.024Z,39.83
2018-07-22T19:05:34.727Z,41.00
2018-07-22T19:08:03.477Z,40.78
2018-07-22T19:10:32.336Z,40.28
2018-07-22T19:13:00.985Z,41.09
2018-07-22T19:15:30.127Z,40.81
2018-07-22T19:17:58.766Z,40.44
2018-07-22T19:20:28.216Z,40.90
2018-07-22T19:22:56.884Z,41.30
2018-07-22T19:25:26.097Z,41.24
2018-07-22T19:27:55.505Z,41.05
2018-07-22T19:30:25.425Z,41.23
2018-07-22T19:32:54.465Z,41.77
2018-07-22T19:35:23.024Z,41.67
2018-07-22T19:37:51.773Z,41.18
2018-07-22T19:40:20.511Z,41.22
2018-07-22T19:42:49.153Z,42.08
2018-07-22T19:45:18.047Z,41.91
2018-07-22T19:47:47.291Z,41.81
2018-07-22T19:50:16.162Z,42.11
2018-07-22T19:52:44.924Z,43.19
2018-07-22T19:55:14.118Z,42.94
2018-07-22T19:57:42.760Z,43.70
2018-07-22T20:00:11.389Z,44.37
2018-07-22T20:02:40.813Z,43.74
2018-07-22T20:05:09.576Z,44.06
2018-07-22T20:07:38.276Z,44.43
2018-07-22T20:10:06.875Z,44.66
2018-07-22T20:12:36.342Z,44.92
2018-07-22T20:15:04.927Z,44.99
2018-07-22T20:17:50.354Z,45.75
2018-07-22T20:20:22.023Z,45.16
2018-07-22T20:22:53.375Z,46.18
2018-07-22T20:25:24.827Z,46.42
2018-07-22T20:27:55.660Z,46.63
2018-07-22T20:30:31.469Z,46.25
2018-07-22T20:33:00.597Z,46.16
2018-07-22T20:35:30.444Z,46.97
2018-07-22T20:38:02.266Z,46.41
2018-07-22T20:40:33.666Z,47.21
2018-07-22T20:43:02.233Z,47.17
2018-07-22T20:45:30.829Z,47.41
2018-07-22T20:47:59.926Z,47.99
2018-07-22T20:50:31.498Z,47.40
2018-07-22T20:53:04.978Z,48.08
2018-07-22T20:55:35.889Z,47.55
2018-07-22T20:58:04.597Z,48.21
2018-07-22T21:00:35.185Z,48.33
2018-07-22T21:03:03.827Z,48.68
2018-07-22T21:05:34.006Z,48.58
2018-07-22T21:08:03.569Z,48.95
2018-07-22T21:10:32.295Z,48.70
2018-07-22T21:13:15.158Z,48.59
2018-07-22T21:15:43.794Z,48.28
2018-07-22T21:18:12.691Z,48.47
2018-07-22T21:20:41.752Z,49.14
2018-07-22T21:23:10.852Z,49.13
2018-07-22T21:25:42.018Z,48.65
2018-07-22T21:28:11.427Z,48.27
2018-07-22T21:30:40.187Z,49.12
2018-07-22T21:33:08.996Z,48.95
2018-07-22T21:35:37.783Z,49.88
2018-07-22T21:38:06.479Z,49.94
2018-07-22T21:40:36.052Z,49.35
2018-07-22T21:43:05.256Z,49.86
2018-07-22T21:45:33.928Z,49.87
2018-07-22T21:48:02.848Z,49.42
2018-07-22T21:50:33.354Z,49.55
2018-07-22T21:53:02.015Z,49.04
2018-07-22T21:55:32.059Z,49.80
2018-07-22T21:58:00.827Z,49.94
2018-07-22T22:00:35.089Z,49.62
2018-07-22T22:03:04.775Z,49.32
2018-07-22T22:05:33.986Z,49.64
2018-07-22T22:08:02.630Z,49.63
2018-07-22T22:10:31.139Z,49.95
2018-07-22T22:13:00.000Z,49.77
2018-07-22T22:15:31.715Z,49.83
2018-07-22T22:18:02.494Z,50.07
2018-07-22T22:20:31.590Z,50.39
2018-07-22T22:23:00.750Z,49.83
2018-07-22T22:25:29.996Z,50.28
2018-07-22T22:27:59.599Z,50.21
2018-07-22T22:30:28.089Z,50.79
2018-07-22T22:32:56.571Z,50.22
2018-07-22T22:35:25.941Z,50.77
2018-07-22T22:37:55.022Z,50.39
2018-07-22T22:40:24.742Z,50.48
2018-07-22T22:42:53.399Z,50.77
2018-07-22T22:45:22.231Z,51.29
2018-07-22T22:47:50.805Z,51.60
2018-07-22T22:50:19.350Z,51.29
2018-07-22T22:52:48.688Z,51.34
2018-07-22T22:55:17.915Z,51.95
2018-07-22T22:58:55.376Z,51.30
2018-07-22T23:01:24.957Z,51.44
2018-07-22T23:03:54.623Z,52.38
2018-07-22T23:06:23.167Z,51.57
2018-07-22T23:08:51.722Z,52.19
2018-07-22T23:11:20.275Z,52.22
2018-07-22T23:13:48.998Z,51.86
2018-07-22T23:16:18.620Z,51.85
2018-07-22T23:18:48.975Z,51.75
2018-07-22T23:21:17.854Z,51.25
2018-07-22T23:23:46.888Z,51.33
2018-07-22T23:26:15.811Z,51.20
2018-07-22T23:28:44.414Z,51.44
2018-07-22T23:31:12.951Z,51.41
2018-07-22T23:33:41.850Z,51.61
2018-07-22T23:36:11.879Z,52.31
2018-07-22T23:38:42.539Z,52.48
2018-07-22T23:41:11.405Z,52.86
2018-07-22T23:43:40.499Z,53.12
2018-07-22T23:46:10.369Z,52.48
2018-07-22T23:48:39.041Z,52.69
2018-07-22T23:51:07.574Z,52.05
2018-07-22T23:53:36.216Z,52.77
2018-07-22T23:56:04.795Z,52.23
2018-07-22T23:58:33.406Z,52.87
